Time;durP1;ratioP1;P1;durP2;ratioP2;P2;SDS_P1;SDS_P2;PMS_P1;PMS_P2;Temp;Humidity;BMP_temperature;BMP_pressure;BME280_temperature;BME280_humidity;BME280_pressure;Samples;Min_cycle;Max_cycle;Signal;HPM_P1;HPM_P2
2023/04/05 00:01:27;;;;;;;13.73;9.05;;;;;;;7.85;70.66;100036.06;5035635;28;20030;-57
2023/04/05 00:03:57;;;;;;;13.20;8.48;;;;;;;7.68;70.70;99999.84;5035552;28;20092;-51
2023/04/05 00:06:27;;;;;;;16.83;9.00;;;;;;;7.60;70.71;99995.88;5034971;28;20033;-51
2023/04/05 00:08:58;;;;;;;14.32;9.68;;;;;;;7.83;70.74;100029.94;5035001;28;20033;-54
2023/04/05 00:11:26;;;;;;;16.83;9.20;;;;;;;7.73;70.83;100027.91;5035035;28;20116;-55
2023/04/05 00:13:51;;;;;;;15.88;9.27;;;;;;;7.73;70.78;100033.22;5035229;28;20457;-53
2023/04/05 00:16:17;;;;;;;12.13;9.75;;;;;;;7.69;70.80;100039.72;5023163;28;20133;-53
2023/04/05 00:18:44;;;;;;;12.80;9.45;;;;;;;7.67;71.15;100022.13;5015017;28;20445;-55
2023/04/05 00:21:13;;;;;;;12.27;8.93;;;;;;;7.61;71.23;100026.06;5015592;28;20352;-52
2023/04/05 00:23:40;;;;;;;13.82;9.88;;;;;;;7.62;71.63;100022.44;5015608;28;20365;-50
2023/04/05 00:26:06;;;;;;;14.30;9.93;;;;;;;7.55;71.55;100018.44;5015137;28;20030;-53
2023/04/05 00:28:32;;;;;;;13.63;10.15;;;;;;;7.52;71.63;100021.31;5016335;28;20025;-54
2023/04/05 00:30:57;;;;;;;15.65;10.52;;;;;;;7.45;71.53;100020.84;5014456;28;20038;-55
2023/04/05 00:33:23;;;;;;;13.32;10.20;;;;;;;7.49;71.99;100032.16;5015599;28;20109;-54
2023/04/05 00:35:48;;;;;;;16.05;10.82;;;;;;;7.39;71.97;100023.91;5015394;28;20453;-51
2023/04/05 00:38:14;;;;;;;13.07;10.38;;;;;;;7.43;71.85;100026.28;5024605;28;20042;-54
2023/04/05 00:40:39;;;;;;;14.07;10.13;;;;;;;7.43;72.07;100028.94;5034027;28;20037;-54
2023/04/05 00:43:05;;;;;;;14.18;10.23;;;;;;;7.40;72.07;100026.50;5035112;28;20034;-50
2023/04/05 00:45:31;;;;;;;16.65;10.50;;;;;;;7.38;72.34;100032.84;5033639;28;20345;-51
2023/04/05 00:47:56;;;;;;;14.75;9.68;;;;;;;7.33;72.30;100030.47;5034676;28;20102;-53
2023/04/05 00:50:23;;;;;;;13.95;10.23;;;;;;;7.32;72.08;100031.44;5033505;28;20460;-54
2023/04/05 00:52:49;;;;;;;16.05;10.38;;;;;;;7.13;72.21;100007.78;5034816;28;20052;-53
2023/04/05 00:55:16;;;;;;;16.08;10.23;;;;;;;7.28;72.46;100037.91;5033721;28;20037;-56
2023/04/05 00:57:44;;;;;;;13.02;9.95;;;;;;;7.17;72.60;100030.59;5034435;28;20095;-55
2023/04/05 01:00:10;;;;;;;16.98;10.63;;;;;;;7.23;72.68;100046.19;5033760;28;20448;-56
2023/04/05 01:02:48;;;;;;;15.82;10.80;;;;;;;7.27;72.42;100044.19;5020636;28;20046;-57
2023/04/05 01:05:29;;;;;;;17.40;11.35;;;;;;;7.23;72.69;100043.53;5013597;28;20503;-53
2023/04/05 01:08:08;;;;;;;19.10;10.57;;;;;;;7.13;72.88;100026.44;5014524;28;20461;-54
2023/04/05 01:10:41;;;;;;;16.83;10.73;;;;;;;7.18;73.03;100045.63;5014360;28;20099;-55
2023/04/05 01:13:07;;;;;;;14.90;11.00;;;;;;;7.14;72.88;100052.09;5014526;28;20386;-52
2023/04/05 01:15:33;;;;;;;18.05;11.13;;;;;;;6.91;72.79;100017.13;5014274;28;20038;-50
2023/04/05 01:18:00;;;;;;;17.63;10.80;;;;;;;7.12;72.84;100054.00;5014079;28;20056;-50
2023/04/05 01:20:33;;;;;;;16.30;10.90;;;;;;;7.14;72.83;100042.31;5014158;28;20030;-51
2023/04/05 01:23:05;;;;;;;17.02;11.48;;;;;;;7.11;72.57;100052.28;5014390;28;20060;-50
2023/04/05 01:25:49;;;;;;;18.60;11.40;;;;;;;7.09;72.47;100043.56;5013864;28;20038;-50
2023/04/05 01:28:39;;;;;;;18.98;11.57;;;;;;;7.18;72.76;100042.97;5013887;28;20048;-50
2023/04/05 01:31:04;;;;;;;18.10;11.82;;;;;;;7.08;72.29;100041.84;5015311;28;20064;-50
2023/04/05 01:33:39;;;;;;;22.02;11.70;;;;;;;7.08;72.45;100047.16;5013663;28;20053;-51
2023/04/05 01:36:16;;;;;;;14.93;11.10;;;;;;;7.11;72.44;100054.97;5013819;28;20076;-55
2023/04/05 01:38:45;;;;;;;19.30;12.25;;;;;;;7.02;72.39;100048.41;5014226;28;20349;-52
2023/04/05 01:41:11;;;;;;;19.77;11.45;;;;;;;6.97;72.35;100054.00;5013873;28;20076;-53
2023/04/05 01:43:36;;;;;;;21.60;12.45;;;;;;;6.93;73.09;100046.31;5013440;28;20038;-51
2023/04/05 01:46:02;;;;;;;15.23;11.43;;;;;;;6.90;72.49;100047.34;5013491;28;20103;-51
2023/04/05 01:48:27;;;;;;;16.77;11.82;;;;;;;6.88;72.88;100052.78;5013937;28;20056;-51
2023/04/05 01:50:53;;;;;;;17.80;11.77;;;;;;;6.65;72.88;100021.41;5013452;28;20070;-51
2023/04/05 01:53:18;;;;;;;18.45;11.35;;;;;;;6.83;72.58;100054.00;5013561;28;20040;-55
2023/04/05 01:55:44;;;;;;;22.35;12.18;;;;;;;6.83;72.76;100051.34;5013580;28;20034;-53
2023/04/05 01:58:10;;;;;;;19.00;11.63;;;;;;;6.81;72.61;100048.78;5014012;28;20108;-54
2023/04/05 02:00:35;;;;;;;22.25;12.20;;;;;;;6.81;72.88;100046.09;5013976;28;20168;-52
2023/04/05 02:03:01;;;;;;;20.13;11.80;;;;;;;6.69;72.60;100041.56;5013333;28;20449;-54
2023/04/05 02:05:26;;;;;;;18.70;11.85;;;;;;;6.86;72.11;100048.50;5013359;28;20092;-49
2023/04/05 02:07:52;;;;;;;21.58;12.15;;;;;;;6.77;71.98;100046.41;5013771;28;20041;-50
2023/04/05 02:10:18;;;;;;;18.58;12.07;;;;;;;6.73;72.30;100054.56;5013446;28;20034;-50
2023/04/05 02:12:43;;;;;;;19.02;12.32;;;;;;;6.68;72.47;100059.31;5013093;28;20381;-54
2023/04/05 02:15:09;;;;;;;22.10;12.82;;;;;;;6.65;72.37;100061.31;5031173;28;20142;-50
2023/04/05 02:17:38;;;;;;;21.15;12.50;;;;;;;6.60;72.57;100064.25;5033195;28;20432;-48
2023/04/05 02:20:11;;;;;;;18.85;12.32;;;;;;;6.61;72.63;100076.59;5032727;28;20025;-52
2023/04/05 02:22:38;;;;;;;18.73;12.18;;;;;;;6.56;72.89;100065.38;5030244;28;20080;-49
2023/04/05 02:25:06;;;;;;;16.42;11.80;;;;;;;6.54;72.76;100080.59;5012878;28;20026;-56
2023/04/05 02:27:31;;;;;;;21.20;11.82;;;;;;;6.50;72.82;100077.25;5013188;28;20034;-54
2023/04/05 02:29:57;;;;;;;18.45;12.57;;;;;;;6.50;72.67;100084.34;5013151;28;20040;-54
2023/04/05 02:32:23;;;;;;;20.67;12.15;;;;;;;6.46;72.46;100073.91;5013294;28;20084;-52
2023/04/05 02:34:49;;;;;;;16.77;12.13;;;;;;;6.42;72.47;100080.34;5012563;28;20455;-53
2023/04/05 02:37:15;;;;;;;20.95;12.82;;;;;;;6.38;72.81;100083.28;5013723;28;20022;-55
2023/04/05 02:39:41;;;;;;;19.85;12.57;;;;;;;6.35;73.04;100087.00;5032089;28;20088;-55
2023/04/05 02:42:06;;;;;;;20.33;13.30;;;;;;;6.33;72.96;100088.88;5032298;28;20033;-53
2023/04/05 02:44:32;;;;;;;18.70;12.35;;;;;;;6.31;72.79;100091.63;5032621;28;20411;-55
2023/04/05 02:46:57;;;;;;;16.35;12.38;;;;;;;6.30;72.99;100089.06;5032345;28;20360;-56
2023/04/05 02:49:23;;;;;;;17.88;12.77;;;;;;;6.29;72.88;100090.03;5032778;28;20029;-55
2023/04/05 02:51:48;;;;;;;18.73;13.02;;;;;;;6.27;72.43;100090.09;5029451;28;20052;-56
2023/04/05 02:54:14;;;;;;;18.83;13.27;;;;;;;6.18;72.57;100086.16;5032351;28;20095;-51
2023/04/05 02:56:39;;;;;;;20.10;12.55;;;;;;;6.20;72.44;100095.84;5032185;28;20033;-54
2023/04/05 02:59:04;;;;;;;18.38;12.55;;;;;;;6.18;72.34;100095.97;5029499;28;20033;-49
2023/04/05 03:01:31;;;;;;;21.80;12.20;;;;;;;6.18;72.39;100093.31;5012601;28;20083;-51
2023/04/05 03:03:56;;;;;;;17.08;12.45;;;;;;;6.21;72.02;100090.47;5013011;28;20120;-55
2023/04/05 03:06:22;;;;;;;17.63;12.05;;;;;;;6.22;71.57;100107.25;5012486;28;20401;-53
2023/04/05 03:08:48;;;;;;;18.73;12.35;;;;;;;6.23;71.38;100104.50;5011649;28;21017;-52
2023/04/05 03:11:13;;;;;;;19.08;11.98;;;;;;;6.23;71.71;100098.31;5012733;28;20056;-52
2023/04/05 03:13:39;;;;;;;20.58;12.10;;;;;;;6.27;71.14;100098.06;5012814;28;20120;-55
2023/04/05 03:16:05;;;;;;;19.25;11.82;;;;;;;6.14;70.89;100071.34;5031767;28;20345;-56
2023/04/05 03:18:31;;;;;;;17.73;12.02;;;;;;;6.36;70.98;100104.66;5032242;28;20041;-52
2023/04/05 03:20:57;;;;;;;19.15;11.65;;;;;;;6.43;70.75;100108.66;5032499;28;20026;-55
2023/04/05 03:23:28;;;;;;;20.80;11.63;;;;;;;6.55;70.17;100111.56;5032010;28;20029;-53
2023/04/05 03:26:03;;;;;;;17.80;11.57;;;;;;;6.64;70.28;100110.16;5032449;28;20025;-53
2023/04/05 03:28:31;;;;;;;15.25;10.77;;;;;;;6.75;69.55;100113.88;5032403;28;20083;-52
2023/04/05 03:30:57;;;;;;;16.85;11.52;;;;;;;7.06;68.54;100113.81;5031577;28;20034;-52
2023/04/05 03:33:22;;;;;;;17.45;12.02;;;;;;;7.49;66.34;100114.75;5031229;28;20470;-55
2023/04/05 03:35:48;;;;;;;15.05;10.57;;;;;;;8.00;64.93;100114.19;5032159;28;20085;-53
2023/04/05 03:38:14;;;;;;;15.45;10.63;;;;;;;8.53;63.11;100121.41;5020408;28;20437;-53
2023/04/05 03:40:40;;;;;;;16.98;10.95;;;;;;;9.09;61.00;100125.63;5011263;28;20065;-55
2023/04/05 03:43:05;;;;;;;17.48;10.27;;;;;;;9.52;58.90;100119.94;5012598;28;20040;-54
2023/04/05 03:45:30;;;;;;;17.10;10.38;;;;;;;10.03;57.21;100134.13;5011384;28;20034;-57
2023/04/05 03:47:59;;;;;;;14.75;10.35;;;;;;;10.54;55.81;100119.69;5012421;28;20092;-51
2023/04/05 03:50:25;;;;;;;14.38;10.05;;;;;;;10.96;54.21;100124.53;5012197;28;20042;-52
2023/04/05 03:52:52;;;;;;;17.35;10.07;;;;;;;11.37;52.74;100129.44;5013270;28;20103;-51
2023/04/05 03:55:17;;;;;;;15.52;9.60;;;;;;;11.88;51.28;100128.91;5015821;28;20096;-50
2023/04/05 03:57:43;;;;;;;13.95;10.07;;;;;;;12.23;49.67;100105.56;5014406;28;20488;-55
2023/04/05 04:00:13;;;;;;;12.25;9.65;;;;;;;12.76;48.62;100136.91;5015182;28;20034;-51
2023/04/05 04:02:45;;;;;;;12.70;9.55;;;;;;;13.20;47.73;100135.91;5030205;28;20030;-50
2023/04/05 04:05:12;;;;;;;12.80;9.32;;;;;;;13.58;46.28;100144.31;5035592;28;20053;-56
2023/04/05 04:07:37;;;;;;;13.73;9.40;;;;;;;13.78;45.49;100140.72;5034907;28;20025;-56
2023/04/05 04:10:04;;;;;;;17.30;9.48;;;;;;;14.01;45.08;100139.66;5034818;28;20025;-56
2023/04/05 04:12:30;;;;;;;11.52;9.60;;;;;;;14.07;44.57;100136.41;5034563;28;20459;-52
2023/04/05 04:14:55;;;;;;;13.50;9.80;;;;;;;14.29;44.15;100142.53;5035057;28;20031;-55
2023/04/05 04:17:32;;;;;;;12.50;9.77;;;;;;;14.59;43.77;100154.16;5034667;28;20830;-52
2023/04/05 04:19:58;;;;;;;13.90;9.90;;;;;;;14.68;42.96;100139.81;5035065;28;20069;-50
2023/04/05 04:22:32;;;;;;;18.13;10.00;;;;;;;14.98;42.29;100154.16;5034229;28;20428;-55
2023/04/05 04:25:03;;;;;;;16.67;10.23;;;;;;;15.31;41.67;100149.25;5034419;28;20037;-54
2023/04/05 04:27:30;;;;;;;15.35;9.45;;;;;;;15.53;41.02;100149.88;5015044;28;20072;-55
2023/04/05 04:30:00;;;;;;;17.27;9.43;;;;;;;15.99;39.88;100143.72;5014794;28;20045;-52
2023/04/05 04:32:46;;;;;;;16.83;11.00;;;;;;;16.45;38.78;100159.91;5027348;28;20029;-53
2023/04/05 04:35:17;;;;;;;14.15;9.70;;;;;;;17.04;37.26;100154.84;5034457;28;20025;-54
2023/04/05 04:37:45;;;;;;;18.27;10.27;;;;;;;17.30;36.80;100156.72;5034053;28;20025;-53
2023/04/05 04:40:16;;;;;;;15.52;10.25;;;;;;;17.62;36.06;100159.75;5033703;28;20037;-55
2023/04/05 04:42:47;;;;;;;14.80;9.65;;;;;;;18.17;35.27;100169.31;5034167;28;20025;-54
2023/04/05 04:45:16;;;;;;;16.42;10.05;;;;;;;18.35;34.82;100162.94;5034374;28;20193;-54
2023/04/05 04:47:46;;;;;;;17.70;10.55;;;;;;;18.61;34.18;100170.06;5034148;28;20099;-54
2023/04/05 04:50:13;;;;;;;17.42;10.88;;;;;;;18.78;33.34;100160.06;5022084;28;20046;-53
2023/04/05 04:52:39;;;;;;;18.52;10.13;;;;;;;19.06;33.34;100165.19;5014483;28;20096;-55
2023/04/05 04:55:09;;;;;;;17.90;9.65;;;;;;;19.14;33.24;100164.31;5014095;28;20109;-53
2023/04/05 04:57:35;;;;;;;15.85;10.07;;;;;;;19.13;32.65;100162.63;5014706;28;20136;-61
2023/04/05 05:00:01;;;;;;;13.88;9.80;;;;;;;19.51;32.15;100162.88;5014565;28;20029;-53
2023/04/05 05:02:27;;;;;;;15.18;10.15;;;;;;;19.84;31.12;100162.78;5012993;28;20278;-51
2023/04/05 05:04:52;;;;;;;13.43;9.80;;;;;;;19.86;31.00;100168.88;5014288;28;20030;-52
2023/04/05 05:07:19;;;;;;;15.02;10.10;;;;;;;19.79;31.61;100173.31;5014392;28;20082;-53
2023/04/05 05:09:44;;;;;;;16.23;9.65;;;;;;;19.84;31.21;100173.63;5014139;28;20095;-54
2023/04/05 05:12:10;;;;;;;15.82;9.32;;;;;;;19.89;31.00;100184.81;5014233;28;20026;-54
2023/04/05 05:14:36;;;;;;;12.57;8.77;;;;;;;19.50;31.17;100191.91;5029234;28;20055;-53
2023/04/05 05:17:03;;;;;;;14.32;8.13;;;;;;;19.00;31.82;100198.44;5034115;28;20040;-53
2023/04/05 05:19:30;;;;;;;12.98;8.57;;;;;;;19.04;31.59;100183.50;5033844;28;20047;-55
2023/04/05 05:21:55;;;;;;;11.93;7.80;;;;;;;20.01;30.60;100192.59;5033968;28;20826;-55
2023/04/05 05:24:21;;;;;;;13.02;8.18;;;;;;;20.71;29.22;100181.84;5033611;28;20108;-55
2023/04/05 05:26:46;;;;;;;14.93;7.78;;;;;;;21.69;27.98;100183.84;5033550;28;20508;-55
2023/04/05 05:29:12;;;;;;;11.52;7.82;;;;;;;22.35;26.50;100189.31;5018627;28;20038;-52
2023/04/05 05:31:38;;;;;;;13.68;7.97;;;;;;;22.67;26.36;100188.19;5014031;28;20044;-54
2023/04/05 05:34:03;;;;;;;14.00;7.38;;;;;;;22.65;26.19;100193.81;5013964;28;20104;-57
2023/04/05 05:36:29;;;;;;;13.82;7.68;;;;;;;23.07;25.93;100191.28;5013660;28;20041;-53
2023/04/05 05:38:55;;;;;;;11.70;7.60;;;;;;;23.74;25.35;100185.44;5014123;28;20038;-54
2023/04/05 05:41:21;;;;;;;11.88;7.38;;;;;;;24.19;24.49;100183.16;5013827;28;20029;-55
2023/04/05 05:43:46;;;;;;;12.82;7.03;;;;;;;23.85;24.66;100187.59;5013380;28;20437;-54
2023/04/05 05:46:12;;;;;;;17.00;7.40;;;;;;;24.36;24.18;100191.00;5013730;28;20124;-55
2023/04/05 05:48:37;;;;;;;23.80;7.80;;;;;;;24.80;23.49;100189.63;5013777;28;20095;-59
2023/04/05 05:51:08;;;;;;;15.15;6.95;;;;;;;24.64;23.09;100174.41;5013888;28;20073;-53
2023/04/05 05:53:35;;;;;;;15.75;7.65;;;;;;;24.92;23.46;100200.78;5030690;28;20478;-60
2023/04/05 05:56:01;;;;;;;10.95;7.60;;;;;;;25.14;22.90;100194.28;5033675;28;20061;-54
2023/04/05 05:58:27;;;;;;;10.95;6.78;;;;;;;24.90;23.07;100191.94;5033672;28;20044;-54
2023/04/05 06:00:55;;;;;;;18.58;6.90;;;;;;;25.08;22.71;100202.31;5033203;28;20148;-54
2023/04/05 06:03:22;;;;;;;15.07;7.28;;;;;;;25.02;22.70;100164.78;5033257;28;20033;-55
2023/04/05 06:05:52;;;;;;;13.63;7.32;;;;;;;25.00;22.99;100199.75;5033215;28;20022;-54
2023/04/05 06:08:17;;;;;;;11.43;7.75;;;;;;;24.57;23.00;100195.47;5032986;28;20033;-57
2023/04/05 06:10:43;;;;;;;12.05;7.40;;;;;;;24.78;22.92;100197.22;5032250;28;20037;-55
2023/04/05 06:13:08;;;;;;;15.10;7.43;;;;;;;24.86;23.24;100198.91;5033194;28;20033;-57
2023/04/05 06:15:34;;;;;;;14.27;8.13;;;;;;;24.74;23.08;100197.81;5030838;28;20336;-56
2023/04/05 06:18:00;;;;;;;13.52;7.50;;;;;;;24.44;23.47;100204.50;5032918;28;20471;-53
2023/04/05 06:20:25;;;;;;;18.75;7.85;;;;;;;24.10;24.02;100199.94;5033305;28;20025;-56
2023/04/05 06:22:51;;;;;;;23.73;8.88;;;;;;;23.39;24.60;100207.28;5032769;28;20036;-57
2023/04/05 06:25:16;;;;;;;15.63;7.43;;;;;;;22.67;25.51;100202.69;5032592;28;20029;-51
2023/04/05 06:27:42;;;;;;;14.93;6.95;;;;;;;22.60;25.50;100185.38;5033058;28;20037;-54
2023/04/05 06:30:08;;;;;;;17.48;7.55;;;;;;;22.88;25.56;100209.16;5032881;28;20455;-54
2023/04/05 06:32:33;;;;;;;17.38;8.10;;;;;;;23.36;24.97;100212.09;5031490;28;20034;-55
2023/04/05 06:35:00;;;;;;;13.65;7.40;;;;;;;24.16;24.02;100210.94;5032715;28;20106;-55
2023/04/05 06:37:25;;;;;;;13.77;7.20;;;;;;;24.69;23.02;100214.88;5032582;28;20052;-53
2023/04/05 06:39:50;;;;;;;17.58;7.43;;;;;;;24.46;23.59;100210.59;5014419;28;20029;-66
2023/04/05 06:42:16;;;;;;;15.32;7.00;;;;;;;24.08;23.82;100214.69;5021767;28;20038;-54
2023/04/05 06:44:41;;;;;;;18.08;7.75;;;;;;;23.81;24.35;100224.59;5012622;28;20042;-56
2023/04/05 06:47:07;;;;;;;16.17;7.47;;;;;;;23.26;24.79;100222.56;5012743;28;20125;-55
2023/04/05 06:49:32;;;;;;;12.60;6.93;;;;;;;22.73;25.34;100228.34;5012377;28;20070;-54
2023/04/05 06:51:58;;;;;;;13.65;7.50;;;;;;;22.30;25.89;100224.47;5012205;28;20115;-51
2023/04/05 06:54:23;;;;;;;17.77;7.70;;;;;;;22.21;25.98;100221.03;5017419;28;20052;-56
2023/04/05 06:56:50;;;;;;;19.27;7.20;;;;;;;22.36;26.22;100222.88;5019879;28;20029;-62
2023/04/05 06:59:15;;;;;;;20.10;7.68;;;;;;;22.94;25.27;100213.84;5012609;28;20038;-62
2023/04/05 07:01:41;;;;;;;11.82;7.53;;;;;;;23.55;24.50;100220.66;5025215;28;20416;-62
2023/04/05 07:04:06;;;;;;;21.75;8.20;;;;;;;24.13;24.20;100215.94;5024031;28;20060;-54
2023/04/05 07:06:34;;;;;;;15.63;7.50;;;;;;;25.00;23.33;100218.09;5027853;28;20026;-57
2023/04/05 07:09:00;;;;;;;15.07;7.75;;;;;;;26.20;22.00;100221.72;5031716;28;20029;-57
2023/04/05 07:11:26;;;;;;;13.80;7.20;;;;;;;27.10;20.42;100216.34;5019260;28;20477;-58
2023/04/05 07:13:52;;;;;;;16.20;7.10;;;;;;;27.51;19.87;100201.22;5011943;28;20108;-62
2023/04/05 07:16:21;;;;;;;11.93;6.97;;;;;;;28.12;19.27;100223.34;5014664;28;20072;-54
2023/04/05 07:18:47;;;;;;;17.30;7.75;;;;;;;28.20;19.05;100191.97;5039422;28;20028;-53
2023/04/05 07:21:13;;;;;;;13.40;7.75;;;;;;;29.22;18.45;100225.22;5041675;28;20089;-53
2023/04/05 07:23:39;;;;;;;11.73;7.00;;;;;;;30.27;17.33;100223.69;5040965;28;20065;-56
2023/04/05 07:26:06;;;;;;;11.05;6.88;;;;;;;30.83;16.86;100215.66;5038819;28;20056;-50
2023/04/05 07:28:34;;;;;;;16.67;7.40;;;;;;;31.47;16.33;100224.72;5043814;28;20083;-51
2023/04/05 07:31:04;;;;;;;14.63;7.18;;;;;;;32.06;15.97;100226.94;5041871;28;20037;-51
2023/04/05 07:33:30;;;;;;;15.73;7.68;;;;;;;31.99;15.60;100204.16;5043571;28;20037;-52
2023/04/05 07:35:56;;;;;;;14.85;7.05;;;;;;;31.72;15.76;100227.03;5041005;28;20091;-51
2023/04/05 07:38:22;;;;;;;13.00;7.10;;;;;;;30.77;16.72;100216.66;5043801;28;20467;-52
2023/04/05 07:40:48;;;;;;;14.30;6.53;;;;;;;30.32;16.82;100227.41;5043091;28;20127;-49
2023/04/05 07:43:14;;;;;;;16.88;6.88;;;;;;;29.89;17.40;100228.69;5043716;28;20099;-52
2023/04/05 07:45:40;;;;;;;18.25;7.25;;;;;;;29.32;17.75;100233.72;5042134;28;20132;-51
2023/04/05 07:48:05;;;;;;;19.80;7.55;;;;;;;28.87;18.30;100231.50;5043723;28;20033;-50
2023/04/05 07:50:33;;;;;;;12.75;7.50;;;;;;;28.21;18.84;100233.03;5039245;28;20148;-53
2023/04/05 07:52:59;;;;;;;10.48;7.05;;;;;;;27.43;19.54;100220.69;5040523;28;20524;-57
2023/04/05 07:55:26;;;;;;;14.23;7.45;;;;;;;26.42;20.43;100230.50;5044469;28;20025;-50
2023/04/05 07:57:52;;;;;;;21.92;8.10;;;;;;;25.14;22.27;100228.00;5045201;28;20044;-51
2023/04/05 08:00:18;;;;;;;17.75;7.18;;;;;;;24.06;23.78;100232.31;5049728;28;20175;-49
2023/04/05 08:02:44;;;;;;;12.18;7.47;;;;;;;23.39;24.42;100220.94;5055312;28;20033;-50
2023/04/05 08:05:10;;;;;;;21.13;8.75;;;;;;;22.75;25.36;100224.38;5035638;28;20029;-51
2023/04/05 08:07:35;;;;;;;20.42;8.48;;;;;;;21.75;26.60;100233.00;5015439;28;20112;-54
2023/04/05 08:10:01;;;;;;;16.30;7.95;;;;;;;20.81;28.11;100236.03;5015598;28;20034;-56
2023/04/05 08:12:30;;;;;;;17.45;9.27;;;;;;;19.88;29.53;100239.31;5033481;28;20080;-60
2023/04/05 08:14:56;;;;;;;22.80;9.02;;;;;;;19.22;30.54;100232.16;5043485;28;20029;-55
2023/04/05 08:17:22;;;;;;;16.08;8.70;;;;;;;18.55;31.71;100241.22;5044914;28;20143;-50
2023/04/05 08:19:48;;;;;;;17.42;8.48;;;;;;;18.01;32.87;100240.56;5042059;28;20033;-53
2023/04/05 08:22:15;;;;;;;20.65;9.18;;;;;;;17.62;33.60;100241.84;5043671;28;20051;-55
2023/04/05 08:24:40;;;;;;;38.33;10.32;;;;;;;17.48;34.17;100234.31;5040001;28;20056;-54
2023/04/05 08:27:06;;;;;;;32.90;9.40;;;;;;;17.56;34.32;100234.34;5035441;28;20456;-52
2023/04/05 08:29:31;;;;;;;18.42;8.77;;;;;;;17.73;33.93;100231.75;5043497;28;20024;-57
2023/04/05 08:31:57;;;;;;;13.55;8.82;;;;;;;17.74;33.69;100245.13;5043672;28;20026;-55
2023/04/05 08:34:23;;;;;;;17.35;9.32;;;;;;;17.44;34.48;100243.75;5041728;28;20034;-57
2023/04/05 08:36:48;;;;;;;16.95;8.52;;;;;;;17.18;35.09;100258.94;5043758;28;20108;-52
2023/04/05 08:39:14;;;;;;;16.40;9.60;;;;;;;16.88;35.70;100252.03;5042261;28;20026;-51
2023/04/05 08:41:58;;;;;;;19.27;9.80;;;;;;;16.62;36.68;100252.81;5039209;28;20495;-57
2023/04/05 08:44:25;;;;;;;16.48;8.75;;;;;;;16.72;36.71;100260.84;5043200;28;20036;-56
2023/04/05 08:46:53;;;;;;;12.45;8.55;;;;;;;16.79;36.33;100251.97;5042647;28;20615;-57
2023/04/05 08:49:19;;;;;;;18.73;8.55;;;;;;;16.75;36.10;100222.69;5041948;28;20511;-53
2023/04/05 08:51:44;;;;;;;22.20;9.35;;;;;;;16.81;36.83;100237.44;5039242;28;20154;-51
2023/04/05 08:54:10;;;;;;;23.40;9.23;;;;;;;16.76;36.61;100235.22;5038594;28;20033;-54
2023/04/05 08:56:37;;;;;;;18.27;9.00;;;;;;;16.50;36.95;100211.63;5040829;28;20355;-54
2023/04/05 08:59:06;;;;;;;19.25;8.90;;;;;;;16.68;37.12;100233.28;5039856;28;20392;-50
2023/04/05 09:01:34;;;;;;;12.43;9.13;;;;;;;16.47;37.62;100238.97;5040587;28;20033;-55
2023/04/05 09:04:18;;;;;;;14.52;8.35;;;;;;;16.47;37.50;100234.41;5034161;28;20116;-55
2023/04/05 09:06:44;;;;;;;13.10;8.93;;;;;;;16.35;37.71;100236.50;5034007;28;20056;-54
2023/04/05 09:09:10;;;;;;;18.27;9.18;;;;;;;16.38;37.58;100218.28;5034386;28;20033;-53
2023/04/05 09:11:37;;;;;;;17.02;9.35;;;;;;;16.46;37.33;100243.53;5016577;28;20048;-56
2023/04/05 09:14:04;;;;;;;15.13;8.55;;;;;;;16.52;37.91;100252.03;5033881;28;20029;-56
2023/04/05 09:16:32;;;;;;;14.20;8.73;;;;;;;16.58;37.60;100246.88;5031934;28;20041;-57
2023/04/05 09:18:58;;;;;;;19.17;9.00;;;;;;;16.62;37.86;100244.69;5033274;28;20702;-53
2023/04/05 09:21:27;;;;;;;18.42;8.55;;;;;;;16.57;37.35;100215.44;5031144;28;20033;-55
2023/04/05 09:23:54;;;;;;;18.15;9.27;;;;;;;16.49;37.63;100229.72;5038763;28;20162;-54
2023/04/05 09:26:21;;;;;;;14.32;8.68;;;;;;;16.60;37.76;100247.56;5039603;28;20470;-58
2023/04/05 09:28:47;;;;;;;13.48;9.20;;;;;;;16.60;37.57;100225.06;5040662;28;20025;-61
2023/04/05 09:31:33;;;;;;;15.23;9.38;;;;;;;16.99;36.99;100245.56;5036503;28;20029;-61
2023/04/05 09:34:02;;;;;;;17.85;9.10;;;;;;;16.85;37.58;100249.66;5041487;28;20037;-58
2023/04/05 09:36:28;;;;;;;17.52;8.73;;;;;;;16.90;37.81;100241.94;5041440;28;20037;-59
2023/04/05 09:39:06;;;;;;;19.92;10.07;;;;;;;17.04;37.92;100246.81;5040922;28;20036;-51
2023/04/05 09:41:33;;;;;;;17.25;9.10;;;;;;;17.05;37.33;100244.97;5035297;28;20448;-53
2023/04/05 09:43:58;;;;;;;14.63;8.75;;;;;;;16.92;37.52;100242.63;5032140;28;20037;-55
2023/04/05 09:46:36;;;;;;;20.85;8.82;;;;;;;16.93;37.72;100247.88;5042010;28;20353;-55
2023/04/05 09:49:02;;;;;;;20.48;9.10;;;;;;;16.75;38.21;100238.91;5032773;28;20112;-53
2023/04/05 09:51:36;;;;;;;15.35;9.45;;;;;;;17.01;38.07;100247.13;5041053;28;20384;-57
2023/04/05 09:54:07;;;;;;;18.50;9.77;;;;;;;17.04;37.64;100246.81;5038711;28;20265;-55
2023/04/05 09:56:53;;;;;;;16.88;8.95;;;;;;;17.07;38.00;100249.22;5032952;28;20488;-59
2023/04/05 09:59:20;;;;;;;15.85;8.85;;;;;;;16.75;38.28;100239.78;5033143;28;20124;-55
2023/04/05 10:01:50;;;;;;;13.93;8.77;;;;;;;16.87;37.99;100231.41;5036433;28;20029;-58
2023/04/05 10:04:18;;;;;;;17.88;8.98;;;;;;;16.68;38.45;100237.81;5024837;28;20022;-58
2023/04/05 10:06:43;;;;;;;16.65;8.82;;;;;;;16.57;38.76;100238.91;5039834;28;20036;-59
2023/04/05 10:09:10;;;;;;;16.48;8.75;;;;;;;16.54;38.66;100226.56;5042795;28;20029;-56
2023/04/05 10:11:37;;;;;;;16.65;8.63;;;;;;;16.69;38.40;100229.56;5025898;28;20087;-55
2023/04/05 10:14:08;;;;;;;15.30;8.65;;;;;;;16.74;38.22;100237.22;5020392;28;20306;-57
2023/04/05 10:17:03;;;;;;;19.23;9.50;;;;;;;16.53;39.02;100232.09;5041230;28;20066;-56
2023/04/05 10:19:43;;;;;;;16.30;8.60;;;;;;;16.60;38.89;100227.78;5037158;28;20099;-55
2023/04/05 10:22:16;;;;;;;16.63;8.65;;;;;;;16.91;38.46;100235.53;5038564;28;20076;-55
2023/04/05 10:24:50;;;;;;;13.52;9.00;;;;;;;17.00;38.43;100241.88;5038967;28;20356;-57
2023/04/05 10:27:29;;;;;;;13.88;8.77;;;;;;;16.92;38.10;100219.13;5038583;28;20029;-57
2023/04/05 10:30:07;;;;;;;15.05;8.52;;;;;;;16.83;38.44;100243.53;5037725;28;20411;-60
2023/04/05 10:32:43;;;;;;;16.02;9.10;;;;;;;16.56;38.89;100229.09;5038218;28;20025;-60
2023/04/05 10:35:15;;;;;;;15.52;9.13;;;;;;;16.34;39.66;100231.22;5036174;28;20444;-59
2023/04/05 10:38:09;;;;;;;17.50;8.30;;;;;;;16.30;39.81;100235.22;5046741;28;20037;-55
2023/04/05 10:40:36;;;;;;;19.23;8.77;;;;;;;16.08;40.29;100215.72;5050750;28;20135;-58
2023/04/05 10:43:03;;;;;;;16.38;8.82;;;;;;;16.27;40.04;100230.97;5038987;28;20119;-54
2023/04/05 10:45:31;;;;;;;13.77;8.48;;;;;;;16.32;39.76;100228.69;5022998;28;20034;-59
2023/04/05 10:48:17;;;;;;;13.23;8.73;;;;;;;16.42;39.75;100225.94;5012605;28;20061;-56
2023/04/05 10:50:44;;;;;;;15.98;8.63;;;;;;;16.27;40.05;100233.66;5017809;28;20041;-58
2023/04/05 10:53:10;;;;;;;14.57;8.35;;;;;;;16.28;39.89;100231.84;5032228;28;20037;-59
2023/04/05 10:55:37;;;;;;;14.65;8.23;;;;;;;16.37;39.97;100214.69;5032011;28;20125;-58
2023/04/05 10:58:03;;;;;;;15.45;8.85;;;;;;;16.29;39.58;100222.72;5030500;28;20309;-57
2023/04/05 11:00:29;;;;;;;15.18;7.93;;;;;;;16.20;39.85;100230.75;5033356;28;20017;-58
2023/04/05 11:02:56;;;;;;;19.17;8.18;;;;;;;16.07;39.95;100217.59;5048076;28;20033;-56
2023/04/05 11:05:32;;;;;;;13.85;8.43;;;;;;;16.09;40.11;100233.63;5035757;28;20034;-55
2023/04/05 11:08:16;;;;;;;16.45;8.35;;;;;;;16.06;40.04;100223.13;5017971;28;20034;-55
2023/04/05 11:10:50;;;;;;;16.80;8.52;;;;;;;15.93;40.50;100223.47;5018949;28;20026;-56
2023/04/05 11:13:16;;;;;;;20.77;8.23;;;;;;;15.93;40.18;100212.69;5033629;28;20116;-62
2023/04/05 11:15:41;;;;;;;18.13;8.48;;;;;;;15.83;39.93;100215.38;5025982;28;20430;-58
2023/04/05 11:18:10;;;;;;;19.50;8.70;;;;;;;15.93;40.42;100212.69;5032714;28;20110;-59
2023/04/05 11:20:45;;;;;;;13.82;8.95;;;;;;;16.06;40.01;100221.31;5047839;28;20030;-57